Time,TemperatureF,DewpointF,PressureIn,WindDirection,WindDirectionDegrees,WindSpeedMPH,WindSpeedGustMPH,Humidity,HourlyPrecipIn,Conditions,Clouds,dailyrainin,SoftwareType,DateUTC
2013-11-25 00:00:00,75.8,72.3,29.93,SSE,159,0.0,4.0,89,0.00,,,0.00,VWS V14.01,2013-11-25 04:00:00,
2013-11-25 00:30:00,75.1,72.0,29.92,SSE,159,0.0,3.0,90,0.00,,,0.00,VWS V14.01,2013-11-25 04:30:00,
2013-11-25 01:00:00,75.3,72.5,29.92,SSE,159,0.0,4.0,91,0.00,,,0.00,VWS V14.01,2013-11-25 05:00:00,
2013-11-25 01:30:00,75.2,72.1,29.92,SSE,159,0.0,3.0,90,0.00,,,0.00,VWS V14.01,2013-11-25 05:30:00,
2013-11-25 02:00:00,75.2,72.1,29.91,SSE,159,0.0,0.0,90,0.00,,,0.00,VWS V14.01,2013-11-25 06:00:00,
2013-11-25 02:30:00,75.8,73.0,29.90,SSE,159,0.0,1.0,91,0.00,,,0.00,VWS V14.01,2013-11-25 06:30:00,
2013-11-25 03:00:00,75.7,72.9,29.90,SSE,159,0.0,3.0,91,0.00,,,0.00,VWS V14.01,2013-11-25 07:00:00,
2013-11-25 03:30:00,75.0,72.2,29.90,SSE,159,2.0,3.0,91,0.00,,,0.00,VWS V14.01,2013-11-25 07:30:00,
2013-11-25 04:00:00,74.8,72.0,29.90,SSE,159,0.0,4.0,91,0.00,,,0.00,VWS V14.01,2013-11-25 08:00:00,
2013-11-25 04:30:00,74.1,71.3,29.91,SSE,159,1.0,3.0,91,0.00,,,0.00,VWS V14.01,2013-11-25 08:30:00,
2013-11-25 05:00:00,73.5,71.0,29.91,SSE,159,0.0,3.0,92,0.00,,,0.00,VWS V14.01,2013-11-25 09:00:00,
2013-11-25 05:30:00,72.9,70.4,29.92,SSE,159,1.0,3.0,92,0.00,,,0.00,VWS V14.01,2013-11-25 09:30:00,
2013-11-25 06:00:00,73.0,70.5,29.92,SSE,159,0.0,2.0,92,0.00,,,0.00,VWS V14.01,2013-11-25 10:00:00,
2013-11-25 06:30:00,72.5,70.1,29.92,SSE,159,0.0,1.0,92,0.00,,,0.00,VWS V14.01,2013-11-25 10:30:00,
2013-11-25 07:00:00,72.6,70.2,29.93,SSE,159,2.0,2.0,92,0.00,,,0.00,VWS V14.01,2013-11-25 11:00:00,
2013-11-25 07:30:00,73.3,70.8,29.95,SSE,159,0.0,3.0,92,0.00,,,0.00,VWS V14.01,2013-11-25 11:30:00,
2013-11-25 08:00:00,74.7,72.2,29.95,SSE,159,0.0,3.0,92,0.00,,,0.00,VWS V14.01,2013-11-25 12:00:00,
2013-11-25 08:30:00,77.7,74.9,29.96,SE,139,8.0,8.0,91,0.00,,,0.00,VWS V14.01,2013-11-25 12:30:00,
2013-11-25 09:00:00,78.3,74.5,29.96,SE,126,2.0,13.0,88,0.00,,,0.00,VWS V14.01,2013-11-25 13:00:00,
2013-11-25 09:30:00,80.2,74.9,29.98,SSE,158,5.0,13.0,84,0.00,,,0.00,VWS V14.01,2013-11-25 13:30:00,
2013-11-25 10:00:00,78.8,73.9,29.99,SSE,160,5.0,12.0,85,0.00,,,0.00,VWS V14.01,2013-11-25 14:00:00,
2013-11-25 10:30:00,81.5,75.5,29.98,East,99,3.0,9.0,82,0.00,,,0.00,VWS V14.01,2013-11-25 14:30:00,
2013-11-25 11:00:00,82.2,75.4,29.98,ESE,119,7.0,11.0,80,0.00,,,0.00,VWS V14.01,2013-11-25 15:00:00,
2013-11-25 11:30:00,82.9,76.1,29.97,SE,126,3.0,11.0,80,0.00,,,0.00,VWS V14.01,2013-11-25 15:30:00,
2013-11-25 12:00:00,83.0,75.8,29.96,East,88,7.0,13.0,79,0.00,,,0.00,VWS V14.01,2013-11-25 16:00:00,
2013-11-25 12:30:00,82.7,75.2,29.95,ESE,120,4.0,14.0,78,0.00,,,0.00,VWS V14.01,2013-11-25 16:30:00,
2013-11-25 13:00:00,83.2,75.2,29.93,SE,128,11.0,14.0,77,0.00,,,0.00,VWS V14.01,2013-11-25 17:00:00,
2013-11-25 13:30:00,83.2,75.6,29.92,East,83,5.0,15.0,78,0.00,,,0.00,VWS V14.01,2013-11-25 17:30:00,
2013-11-25 14:00:00,83.0,75.1,29.92,East,81,5.0,16.0,77,0.00,,,0.00,VWS V14.01,2013-11-25 18:00:00,
2013-11-25 14:30:00,82.3,75.5,29.91,East,92,3.0,10.0,80,0.00,,,0.00,VWS V14.01,2013-11-25 18:30:00,
2013-11-25 15:00:00,83.5,74.3,29.90,SSE,148,4.0,12.0,74,0.00,,,0.00,VWS V14.01,2013-11-25 19:00:00,
2013-11-25 15:30:00,83.3,73.3,29.91,SE,129,5.0,12.0,72,0.00,,,0.00,VWS V14.01,2013-11-25 19:30:00,
2013-11-25 16:00:00,83.5,73.1,29.92,SE,131,8.0,13.0,71,0.00,,,0.00,VWS V14.01,2013-11-25 20:00:00,
2013-11-25 16:30:00,83.0,73.9,29.92,East,89,6.0,12.0,74,0.00,,,0.00,VWS V14.01,2013-11-25 20:30:00,
2013-11-25 17:00:00,81.8,73.9,29.92,East,97,3.0,12.0,77,0.00,,,0.00,VWS V14.01,2013-11-25 21:00:00,
2013-11-25 17:30:00,81.1,74.0,29.93,East,98,2.0,11.0,79,0.00,,,0.00,VWS V14.01,2013-11-25 21:30:00,
2013-11-25 18:00:00,80.4,73.3,29.93,SE,135,1.0,8.0,79,0.00,,,0.00,VWS V14.01,2013-11-25 22:00:00,
2013-11-25 18:30:00,80.3,73.2,29.94,ESE,103,2.0,11.0,79,0.00,,,0.00,VWS V14.01,2013-11-25 22:30:00,
2013-11-25 19:00:00,80.6,73.9,29.95,SSE,150,6.0,10.0,80,0.00,,,0.00,VWS V14.01,2013-11-25 23:00:00,
2013-11-25 19:30:00,80.6,74.2,29.96,NE,49,5.0,15.0,81,0.00,,,0.00,VWS V14.01,2013-11-25 23:30:00,
2013-11-25 20:00:00,80.8,74.1,29.97,East,98,3.0,9.0,80,0.00,,,0.00,VWS V14.01,2013-11-26 00:00:00,
2013-11-25 20:30:00,80.7,75.1,29.97,East,94,6.0,10.0,83,0.00,,,0.00,VWS V14.01,2013-11-26 00:30:00,
2013-11-25 21:00:00,80.4,74.8,29.97,ESE,119,1.0,9.0,83,0.00,,,0.00,VWS V14.01,2013-11-26 01:00:00,
2013-11-25 21:30:00,80.7,75.1,29.97,East,96,1.0,9.0,83,0.00,,,0.00,VWS V14.01,2013-11-26 01:30:00,
2013-11-25 22:00:00,80.9,74.9,29.97,SE,134,6.0,11.0,82,0.00,,,0.00,VWS V14.01,2013-11-26 02:00:00,
2013-11-25 22:30:00,81.0,74.2,29.97,East,98,5.0,11.0,80,0.00,,,0.00,VWS V14.01,2013-11-26 02:30:00,
2013-11-25 23:00:00,80.8,74.4,29.97,SE,130,7.0,12.0,81,0.01,,,0.01,VWS V14.01,2013-11-26 03:00:00,
2013-11-25 23:30:00,77.4,73.6,29.96,SE,133,1.0,11.0,88,0.11,,,0.11,VWS V14.01,2013-11-26 03:30:00,